sensor_id;sensor_type;location;lat;lon;timestamp;P1;durP1;ratioP1;P2;durP2;ratioP2
21624;SDS011;10974;51.034;3.744;2023-12-28T00:00:12;2.10;;;1.60;;
21624;SDS011;10974;51.034;3.744;2023-12-28T00:02:38;6.43;;;1.57;;
21624;SDS011;10974;51.034;3.744;2023-12-28T00:05:05;1.70;;;1.50;;
21624;SDS011;10974;51.034;3.744;2023-12-28T00:07:32;4.40;;;2.20;;
21624;SDS011;10974;51.034;3.744;2023-12-28T00:09:58;3.80;;;1.57;;
21624;SDS011;10974;51.034;3.744;2023-12-28T00:12:24;2.10;;;1.90;;
21624;SDS011;10974;51.034;3.744;2023-12-28T00:14:50;3.43;;;2.10;;
21624;SDS011;10974;51.034;3.744;2023-12-28T00:17:16;2.33;;;1.97;;
21624;SDS011;10974;51.034;3.744;2023-12-28T00:19:42;1.80;;;1.70;;
21624;SDS011;10974;51.034;3.744;2023-12-28T00:22:08;2.00;;;1.63;;
21624;SDS011;10974;51.034;3.744;2023-12-28T00:24:34;1.43;;;1.33;;
21624;SDS011;10974;51.034;3.744;2023-12-28T00:27:00;3.70;;;1.90;;
21624;SDS011;10974;51.034;3.744;2023-12-28T00:29:26;3.40;;;1.70;;
21624;SDS011;10974;51.034;3.744;2023-12-28T00:31:54;3.40;;;1.73;;
21624;SDS011;10974;51.034;3.744;2023-12-28T00:34:20;2.37;;;1.60;;
21624;SDS011;10974;51.034;3.744;2023-12-28T00:36:46;2.57;;;1.80;;
21624;SDS011;10974;51.034;3.744;2023-12-28T00:39:12;2.50;;;1.77;;
21624;SDS011;10974;51.034;3.744;2023-12-28T00:41:40;2.47;;;1.87;;
21624;SDS011;10974;51.034;3.744;2023-12-28T00:44:06;2.97;;;1.73;;
21624;SDS011;10974;51.034;3.744;2023-12-28T00:46:34;2.43;;;1.90;;
21624;SDS011;10974;51.034;3.744;2023-12-28T00:49:01;3.60;;;1.83;;
21624;SDS011;10974;51.034;3.744;2023-12-28T00:51:27;3.00;;;2.00;;
21624;SDS011;10974;51.034;3.744;2023-12-28T00:53:53;2.77;;;1.60;;
21624;SDS011;10974;51.034;3.744;2023-12-28T00:56:19;3.00;;;1.70;;
21624;SDS011;10974;51.034;3.744;2023-12-28T00:58:46;1.70;;;1.60;;
21624;SDS011;10974;51.034;3.744;2023-12-28T01:01:12;1.73;;;1.53;;
21624;SDS011;10974;51.034;3.744;2023-12-28T01:03:38;2.57;;;1.47;;
21624;SDS011;10974;51.034;3.744;2023-12-28T01:06:04;3.33;;;1.70;;
21624;SDS011;10974;51.034;3.744;2023-12-28T01:08:31;2.93;;;1.60;;
21624;SDS011;10974;51.034;3.744;2023-12-28T01:10:59;3.00;;;1.63;;
21624;SDS011;10974;51.034;3.744;2023-12-28T01:13:25;2.77;;;1.97;;
21624;SDS011;10974;51.034;3.744;2023-12-28T01:15:51;1.73;;;1.20;;
21624;SDS011;10974;51.034;3.744;2023-12-28T01:18:17;4.87;;;2.43;;
21624;SDS011;10974;51.034;3.744;2023-12-28T01:20:44;2.47;;;1.63;;
21624;SDS011;10974;51.034;3.744;2023-12-28T01:23:10;1.60;;;1.40;;
21624;SDS011;10974;51.034;3.744;2023-12-28T01:25:36;1.57;;;1.30;;
21624;SDS011;10974;51.034;3.744;2023-12-28T01:28:02;1.60;;;1.50;;
21624;SDS011;10974;51.034;3.744;2023-12-28T01:30:28;1.90;;;1.77;;
21624;SDS011;10974;51.034;3.744;2023-12-28T01:32:54;2.60;;;1.60;;
21624;SDS011;10974;51.034;3.744;2023-12-28T01:35:20;2.17;;;1.70;;
21624;SDS011;10974;51.034;3.744;2023-12-28T01:37:46;1.70;;;1.60;;
21624;SDS011;10974;51.034;3.744;2023-12-28T01:40:12;4.03;;;1.60;;
21624;SDS011;10974;51.034;3.744;2023-12-28T01:42:38;3.27;;;1.60;;
21624;SDS011;10974;51.034;3.744;2023-12-28T01:45:04;1.50;;;1.37;;
21624;SDS011;10974;51.034;3.744;2023-12-28T01:47:31;3.37;;;1.80;;
21624;SDS011;10974;51.034;3.744;2023-12-28T01:49:57;3.80;;;2.07;;
21624;SDS011;10974;51.034;3.744;2023-12-28T01:52:23;3.73;;;2.03;;
21624;SDS011;10974;51.034;3.744;2023-12-28T01:54:49;1.50;;;1.40;;
21624;SDS011;10974;51.034;3.744;2023-12-28T01:57:16;1.87;;;1.30;;
21624;SDS011;10974;51.034;3.744;2023-12-28T01:59:42;3.37;;;1.73;;
21624;SDS011;10974;51.034;3.744;2023-12-28T02:02:08;1.93;;;1.80;;
21624;SDS011;10974;51.034;3.744;2023-12-28T02:04:35;4.00;;;2.03;;
21624;SDS011;10974;51.034;3.744;2023-12-28T02:07:01;2.40;;;1.57;;
21624;SDS011;10974;51.034;3.744;2023-12-28T02:09:27;4.03;;;1.60;;
21624;SDS011;10974;51.034;3.744;2023-12-28T02:11:53;3.83;;;1.90;;
21624;SDS011;10974;51.034;3.744;2023-12-28T02:14:20;2.40;;;1.40;;
21624;SDS011;10974;51.034;3.744;2023-12-28T02:16:50;2.70;;;1.40;;
21624;SDS011;10974;51.034;3.744;2023-12-28T02:19:18;2.50;;;1.77;;
21624;SDS011;10974;51.034;3.744;2023-12-28T02:21:46;2.53;;;1.90;;
21624;SDS011;10974;51.034;3.744;2023-12-28T02:24:13;2.10;;;1.70;;
21624;SDS011;10974;51.034;3.744;2023-12-28T02:26:39;1.70;;;1.60;;
21624;SDS011;10974;51.034;3.744;2023-12-28T02:29:05;2.00;;;1.70;;
21624;SDS011;10974;51.034;3.744;2023-12-28T02:31:32;1.83;;;1.33;;
21624;SDS011;10974;51.034;3.744;2023-12-28T02:34:04;2.00;;;1.53;;
21624;SDS011;10974;51.034;3.744;2023-12-28T02:36:32;1.80;;;1.53;;
21624;SDS011;10974;51.034;3.744;2023-12-28T02:39:00;1.70;;;1.60;;
21624;SDS011;10974;51.034;3.744;2023-12-28T02:41:28;1.63;;;1.53;;
21624;SDS011;10974;51.034;3.744;2023-12-28T02:43:55;1.47;;;1.30;;
21624;SDS011;10974;51.034;3.744;2023-12-28T02:46:21;3.23;;;1.60;;
21624;SDS011;10974;51.034;3.744;2023-12-28T02:48:48;2.20;;;1.80;;
21624;SDS011;10974;51.034;3.744;2023-12-28T02:51:15;3.50;;;1.73;;
21624;SDS011;10974;51.034;3.744;2023-12-28T02:53:41;3.13;;;2.13;;
21624;SDS011;10974;51.034;3.744;2023-12-28T02:56:07;7.83;;;2.00;;
21624;SDS011;10974;51.034;3.744;2023-12-28T02:58:33;2.33;;;1.70;;
21624;SDS011;10974;51.034;3.744;2023-12-28T03:00:59;1.57;;;1.40;;
21624;SDS011;10974;51.034;3.744;2023-12-28T03:03:25;3.10;;;1.77;;
21624;SDS011;10974;51.034;3.744;2023-12-28T03:05:51;2.20;;;1.73;;
21624;SDS011;10974;51.034;3.744;2023-12-28T03:08:17;4.07;;;1.43;;
21624;SDS011;10974;51.034;3.744;2023-12-28T03:10:43;1.93;;;1.63;;
21624;SDS011;10974;51.034;3.744;2023-12-28T03:13:09;1.63;;;1.43;;
21624;SDS011;10974;51.034;3.744;2023-12-28T03:15:35;2.30;;;1.60;;
21624;SDS011;10974;51.034;3.744;2023-12-28T03:18:01;1.90;;;1.40;;
21624;SDS011;10974;51.034;3.744;2023-12-28T03:20:28;4.33;;;1.70;;
21624;SDS011;10974;51.034;3.744;2023-12-28T03:22:54;1.90;;;1.47;;
21624;SDS011;10974;51.034;3.744;2023-12-28T03:25:20;2.30;;;1.50;;
21624;SDS011;10974;51.034;3.744;2023-12-28T03:27:46;2.20;;;1.47;;
21624;SDS011;10974;51.034;3.744;2023-12-28T03:30:12;4.00;;;1.93;;
21624;SDS011;10974;51.034;3.744;2023-12-28T03:32:38;5.37;;;1.83;;
21624;SDS011;10974;51.034;3.744;2023-12-28T03:35:04;5.33;;;1.73;;
21624;SDS011;10974;51.034;3.744;2023-12-28T03:37:31;2.10;;;1.40;;
21624;SDS011;10974;51.034;3.744;2023-12-28T03:39:58;2.37;;;1.63;;
21624;SDS011;10974;51.034;3.744;2023-12-28T03:42:24;4.83;;;1.57;;
21624;SDS011;10974;51.034;3.744;2023-12-28T03:44:50;3.80;;;1.93;;
21624;SDS011;10974;51.034;3.744;2023-12-28T03:47:16;3.70;;;1.70;;
21624;SDS011;10974;51.034;3.744;2023-12-28T03:49:42;2.47;;;1.27;;
21624;SDS011;10974;51.034;3.744;2023-12-28T03:52:08;3.03;;;1.67;;
21624;SDS011;10974;51.034;3.744;2023-12-28T03:54:34;1.87;;;1.47;;
21624;SDS011;10974;51.034;3.744;2023-12-28T03:57:00;2.37;;;1.27;;
21624;SDS011;10974;51.034;3.744;2023-12-28T03:59:26;5.43;;;1.70;;
21624;SDS011;10974;51.034;3.744;2023-12-28T04:01:52;2.20;;;1.30;;
21624;SDS011;10974;51.034;3.744;2023-12-28T04:04:18;3.97;;;1.63;;
21624;SDS011;10974;51.034;3.744;2023-12-28T04:06:44;1.40;;;1.30;;
21624;SDS011;10974;51.034;3.744;2023-12-28T04:09:13;5.53;;;1.63;;
21624;SDS011;10974;51.034;3.744;2023-12-28T04:11:39;3.40;;;1.33;;
21624;SDS011;10974;51.034;3.744;2023-12-28T04:14:05;2.93;;;1.60;;
21624;SDS011;10974;51.034;3.744;2023-12-28T04:16:31;2.30;;;1.50;;
21624;SDS011;10974;51.034;3.744;2023-12-28T04:18:58;2.50;;;1.20;;
21624;SDS011;10974;51.034;3.744;2023-12-28T04:21:24;2.33;;;1.03;;
21624;SDS011;10974;51.034;3.744;2023-12-28T04:23:50;2.47;;;1.23;;
21624;SDS011;10974;51.034;3.744;2023-12-28T04:26:17;5.27;;;1.70;;
21624;SDS011;10974;51.034;3.744;2023-12-28T04:28:45;6.00;;;2.00;;
21624;SDS011;10974;51.034;3.744;2023-12-28T04:31:11;7.43;;;1.70;;
21624;SDS011;10974;51.034;3.744;2023-12-28T04:33:37;4.93;;;2.00;;
21624;SDS011;10974;51.034;3.744;2023-12-28T04:36:04;3.10;;;1.93;;
21624;SDS011;10974;51.034;3.744;2023-12-28T04:38:31;9.60;;;1.73;;
21624;SDS011;10974;51.034;3.744;2023-12-28T04:40:57;5.10;;;2.30;;
21624;SDS011;10974;51.034;3.744;2023-12-28T04:43:23;7.67;;;2.40;;
21624;SDS011;10974;51.034;3.744;2023-12-28T04:45:50;4.50;;;1.73;;
21624;SDS011;10974;51.034;3.744;2023-12-28T04:48:16;4.43;;;1.67;;
21624;SDS011;10974;51.034;3.744;2023-12-28T04:50:46;8.63;;;1.80;;
21624;SDS011;10974;51.034;3.744;2023-12-28T04:53:12;6.90;;;1.80;;
21624;SDS011;10974;51.034;3.744;2023-12-28T04:55:39;4.57;;;2.03;;
21624;SDS011;10974;51.034;3.744;2023-12-28T04:58:05;7.07;;;1.60;;
21624;SDS011;10974;51.034;3.744;2023-12-28T05:00:31;4.50;;;1.63;;
21624;SDS011;10974;51.034;3.744;2023-12-28T05:02:57;3.43;;;1.40;;
21624;SDS011;10974;51.034;3.744;2023-12-28T05:05:23;4.67;;;1.60;;
21624;SDS011;10974;51.034;3.744;2023-12-28T05:07:49;4.10;;;1.60;;
21624;SDS011;10974;51.034;3.744;2023-12-28T05:10:15;8.10;;;2.33;;
21624;SDS011;10974;51.034;3.744;2023-12-28T05:12:41;4.17;;;1.67;;
21624;SDS011;10974;51.034;3.744;2023-12-28T05:15:07;3.90;;;1.50;;
21624;SDS011;10974;51.034;3.744;2023-12-28T05:17:33;2.67;;;1.90;;
21624;SDS011;10974;51.034;3.744;2023-12-28T05:19:59;2.70;;;1.57;;
21624;SDS011;10974;51.034;3.744;2023-12-28T05:22:25;6.40;;;1.90;;
21624;SDS011;10974;51.034;3.744;2023-12-28T05:24:51;5.90;;;1.60;;
21624;SDS011;10974;51.034;3.744;2023-12-28T05:27:17;9.93;;;1.90;;
21624;SDS011;10974;51.034;3.744;2023-12-28T05:29:43;4.60;;;1.60;;
21624;SDS011;10974;51.034;3.744;2023-12-28T05:32:09;5.23;;;1.87;;
21624;SDS011;10974;51.034;3.744;2023-12-28T05:34:35;2.30;;;1.50;;
21624;SDS011;10974;51.034;3.744;2023-12-28T05:37:01;4.73;;;1.90;;
21624;SDS011;10974;51.034;3.744;2023-12-28T05:39:27;5.10;;;1.63;;
21624;SDS011;10974;51.034;3.744;2023-12-28T05:41:54;6.27;;;1.90;;
21624;SDS011;10974;51.034;3.744;2023-12-28T05:44:20;6.83;;;1.50;;
21624;SDS011;10974;51.034;3.744;2023-12-28T05:46:46;4.13;;;1.93;;
21624;SDS011;10974;51.034;3.744;2023-12-28T05:49:12;6.30;;;2.17;;
21624;SDS011;10974;51.034;3.744;2023-12-28T05:51:38;6.23;;;1.77;;
21624;SDS011;10974;51.034;3.744;2023-12-28T05:54:05;4.43;;;2.10;;
21624;SDS011;10974;51.034;3.744;2023-12-28T05:56:31;5.90;;;1.90;;
21624;SDS011;10974;51.034;3.744;2023-12-28T05:58:57;6.63;;;1.63;;
21624;SDS011;10974;51.034;3.744;2023-12-28T06:01:23;8.30;;;2.20;;
21624;SDS011;10974;51.034;3.744;2023-12-28T06:03:49;4.93;;;1.90;;
21624;SDS011;10974;51.034;3.744;2023-12-28T06:06:17;4.90;;;1.90;;
21624;SDS011;10974;51.034;3.744;2023-12-28T06:08:43;5.90;;;1.53;;
21624;SDS011;10974;51.034;3.744;2023-12-28T06:11:10;5.53;;;1.57;;
21624;SDS011;10974;51.034;3.744;2023-12-28T06:13:36;6.70;;;2.23;;
21624;SDS011;10974;51.034;3.744;2023-12-28T06:16:02;5.33;;;2.10;;
21624;SDS011;10974;51.034;3.744;2023-12-28T06:18:28;7.63;;;1.80;;
21624;SDS011;10974;51.034;3.744;2023-12-28T06:20:55;6.77;;;1.67;;
21624;SDS011;10974;51.034;3.744;2023-12-28T06:23:21;5.73;;;1.80;;
21624;SDS011;10974;51.034;3.744;2023-12-28T06:25:47;5.53;;;1.80;;
21624;SDS011;10974;51.034;3.744;2023-12-28T06:28:13;5.87;;;1.73;;
21624;SDS011;10974;51.034;3.744;2023-12-28T06:30:39;5.70;;;2.17;;
21624;SDS011;10974;51.034;3.744;2023-12-28T06:33:05;4.60;;;2.00;;
21624;SDS011;10974;51.034;3.744;2023-12-28T06:35:31;4.50;;;1.87;;
21624;SDS011;10974;51.034;3.744;2023-12-28T06:37:57;8.30;;;1.97;;
21624;SDS011;10974;51.034;3.744;2023-12-28T06:40:23;5.37;;;1.87;;
21624;SDS011;10974;51.034;3.744;2023-12-28T06:42:49;7.47;;;2.30;;
21624;SDS011;10974;51.034;3.744;2023-12-28T06:45:15;7.37;;;2.00;;
21624;SDS011;10974;51.034;3.744;2023-12-28T06:47:41;4.23;;;1.50;;
21624;SDS011;10974;51.034;3.744;2023-12-28T06:50:08;6.60;;;1.90;;
21624;SDS011;10974;51.034;3.744;2023-12-28T06:52:34;4.83;;;1.83;;
21624;SDS011;10974;51.034;3.744;2023-12-28T06:55:00;5.80;;;1.50;;
21624;SDS011;10974;51.034;3.744;2023-12-28T06:57:27;5.03;;;1.53;;
21624;SDS011;10974;51.034;3.744;2023-12-28T06:59:53;9.47;;;2.10;;
21624;SDS011;10974;51.034;3.744;2023-12-28T07:02:19;12.03;;;2.00;;
21624;SDS011;10974;51.034;3.744;2023-12-28T07:04:45;6.90;;;1.60;;
21624;SDS011;10974;51.034;3.744;2023-12-28T07:07:11;2.60;;;1.73;;
21624;SDS011;10974;51.034;3.744;2023-12-28T07:09:37;5.70;;;1.80;;
21624;SDS011;10974;51.034;3.744;2023-12-28T07:12:03;6.37;;;1.53;;
21624;SDS011;10974;51.034;3.744;2023-12-28T07:14:29;6.87;;;1.97;;
21624;SDS011;10974;51.034;3.744;2023-12-28T07:16:55;5.07;;;1.60;;
21624;SDS011;10974;51.034;3.744;2023-12-28T07:19:21;5.23;;;1.93;;
21624;SDS011;10974;51.034;3.744;2023-12-28T07:21:47;6.57;;;1.70;;
21624;SDS011;10974;51.034;3.744;2023-12-28T07:24:14;9.57;;;2.23;;
21624;SDS011;10974;51.034;3.744;2023-12-28T07:26:40;6.60;;;1.77;;
21624;SDS011;10974;51.034;3.744;2023-12-28T07:29:06;4.87;;;1.73;;
21624;SDS011;10974;51.034;3.744;2023-12-28T07:31:32;6.43;;;2.20;;
21624;SDS011;10974;51.034;3.744;2023-12-28T07:33:58;5.63;;;1.37;;
21624;SDS011;10974;51.034;3.744;2023-12-28T07:36:24;5.70;;;1.87;;
21624;SDS011;10974;51.034;3.744;2023-12-28T07:38:50;2.77;;;1.57;;
21624;SDS011;10974;51.034;3.744;2023-12-28T07:41:16;4.23;;;1.60;;
21624;SDS011;10974;51.034;3.744;2023-12-28T07:43:43;8.23;;;1.73;;
21624;SDS011;10974;51.034;3.744;2023-12-28T07:46:09;8.10;;;1.47;;
21624;SDS011;10974;51.034;3.744;2023-12-28T07:48:35;5.43;;;1.90;;
21624;SDS011;10974;51.034;3.744;2023-12-28T07:51:04;7.43;;;1.80;;
21624;SDS011;10974;51.034;3.744;2023-12-28T07:53:30;8.17;;;1.73;;
21624;SDS011;10974;51.034;3.744;2023-12-28T07:55:57;11.87;;;2.47;;
21624;SDS011;10974;51.034;3.744;2023-12-28T07:58:23;6.30;;;1.90;;
21624;SDS011;10974;51.034;3.744;2023-12-28T08:00:49;8.27;;;2.10;;
21624;SDS011;10974;51.034;3.744;2023-12-28T08:03:15;8.10;;;2.50;;
21624;SDS011;10974;51.034;3.744;2023-12-28T08:05:41;11.20;;;2.10;;
21624;SDS011;10974;51.034;3.744;2023-12-28T08:08:07;7.10;;;2.03;;
21624;SDS011;10974;51.034;3.744;2023-12-28T08:10:33;6.33;;;2.37;;
21624;SDS011;10974;51.034;3.744;2023-12-28T08:12:59;7.80;;;2.17;;
21624;SDS011;10974;51.034;3.744;2023-12-28T08:15:25;8.83;;;2.37;;
21624;SDS011;10974;51.034;3.744;2023-12-28T08:17:51;7.83;;;1.77;;
21624;SDS011;10974;51.034;3.744;2023-12-28T08:20:17;8.90;;;2.07;;
21624;SDS011;10974;51.034;3.744;2023-12-28T08:22:43;5.27;;;1.53;;
21624;SDS011;10974;51.034;3.744;2023-12-28T08:25:10;11.80;;;2.20;;
21624;SDS011;10974;51.034;3.744;2023-12-28T08:27:36;4.07;;;1.90;;
21624;SDS011;10974;51.034;3.744;2023-12-28T08:30:02;4.57;;;1.60;;
21624;SDS011;10974;51.034;3.744;2023-12-28T08:32:28;8.97;;;1.80;;
21624;SDS011;10974;51.034;3.744;2023-12-28T08:34:54;8.50;;;1.60;;
21624;SDS011;10974;51.034;3.744;2023-12-28T08:37:20;8.73;;;1.90;;
21624;SDS011;10974;51.034;3.744;2023-12-28T08:39:46;9.40;;;1.90;;
21624;SDS011;10974;51.034;3.744;2023-12-28T08:42:12;7.23;;;2.80;;
21624;SDS011;10974;51.034;3.744;2023-12-28T08:44:38;9.90;;;1.97;;
21624;SDS011;10974;51.034;3.744;2023-12-28T08:47:04;4.27;;;1.50;;
21624;SDS011;10974;51.034;3.744;2023-12-28T08:49:30;6.17;;;2.40;;
21624;SDS011;10974;51.034;3.744;2023-12-28T08:51:58;5.90;;;1.80;;
21624;SDS011;10974;51.034;3.744;2023-12-28T08:54:24;6.07;;;1.90;;
21624;SDS011;10974;51.034;3.744;2023-12-28T08:56:50;13.47;;;1.77;;
21624;SDS011;10974;51.034;3.744;2023-12-28T08:59:16;12.53;;;2.43;;
21624;SDS011;10974;51.034;3.744;2023-12-28T09:01:42;14.97;;;3.17;;
21624;SDS011;10974;51.034;3.744;2023-12-28T09:04:08;9.20;;;2.57;;
21624;SDS011;10974;51.034;3.744;2023-12-28T09:06:34;9.20;;;2.67;;
21624;SDS011;10974;51.034;3.744;2023-12-28T09:09:00;9.83;;;2.50;;
21624;SDS011;10974;51.034;3.744;2023-12-28T09:11:27;9.13;;;2.80;;
21624;SDS011;10974;51.034;3.744;2023-12-28T09:13:54;10.03;;;2.80;;
21624;SDS011;10974;51.034;3.744;2023-12-28T09:16:20;14.83;;;2.87;;
21624;SDS011;10974;51.034;3.744;2023-12-28T09:18:46;15.57;;;2.40;;
21624;SDS011;10974;51.034;3.744;2023-12-28T09:21:12;7.93;;;3.00;;
21624;SDS011;10974;51.034;3.744;2023-12-28T09:23:41;10.97;;;2.70;;
21624;SDS011;10974;51.034;3.744;2023-12-28T09:26:07;11.43;;;2.80;;
21624;SDS011;10974;51.034;3.744;2023-12-28T09:28:34;7.77;;;2.20;;
21624;SDS011;10974;51.034;3.744;2023-12-28T09:31:01;8.50;;;2.33;;
21624;SDS011;10974;51.034;3.744;2023-12-28T09:33:27;7.73;;;2.23;;
21624;SDS011;10974;51.034;3.744;2023-12-28T09:35:53;9.10;;;2.70;;
21624;SDS011;10974;51.034;3.744;2023-12-28T09:38:19;8.90;;;2.67;;
21624;SDS011;10974;51.034;3.744;2023-12-28T09:40:46;9.30;;;4.10;;
21624;SDS011;10974;51.034;3.744;2023-12-28T09:45:39;9.03;;;2.40;;
21624;SDS011;10974;51.034;3.744;2023-12-28T09:48:05;10.60;;;2.70;;
21624;SDS011;10974;51.034;3.744;2023-12-28T09:50:32;7.67;;;3.10;;
21624;SDS011;10974;51.034;3.744;2023-12-28T09:52:58;13.73;;;3.10;;
21624;SDS011;10974;51.034;3.744;2023-12-28T09:55:24;9.13;;;2.90;;
21624;SDS011;10974;51.034;3.744;2023-12-28T09:57:53;11.13;;;2.50;;
21624;SDS011;10974;51.034;3.744;2023-12-28T10:00:20;13.33;;;3.33;;
21624;SDS011;10974;51.034;3.744;2023-12-28T10:02:46;11.93;;;2.70;;
21624;SDS011;10974;51.034;3.744;2023-12-28T10:05:15;11.73;;;3.10;;
21624;SDS011;10974;51.034;3.744;2023-12-28T10:07:44;12.83;;;2.93;;
21624;SDS011;10974;51.034;3.744;2023-12-28T10:10:11;9.73;;;2.50;;
21624;SDS011;10974;51.034;3.744;2023-12-28T10:12:37;8.67;;;2.10;;
21624;SDS011;10974;51.034;3.744;2023-12-28T10:15:04;11.00;;;2.97;;
21624;SDS011;10974;51.034;3.744;2023-12-28T10:17:33;11.70;;;3.30;;
21624;SDS011;10974;51.034;3.744;2023-12-28T10:20:03;5.83;;;2.63;;
21624;SDS011;10974;51.034;3.744;2023-12-28T10:22:31;10.07;;;3.40;;
21624;SDS011;10974;51.034;3.744;2023-12-28T10:24:58;9.97;;;2.30;;
21624;SDS011;10974;51.034;3.744;2023-12-28T10:27:25;8.70;;;2.20;;
21624;SDS011;10974;51.034;3.744;2023-12-28T10:29:55;10.43;;;2.37;;
21624;SDS011;10974;51.034;3.744;2023-12-28T10:32:21;16.33;;;3.20;;
21624;SDS011;10974;51.034;3.744;2023-12-28T10:34:50;8.83;;;2.67;;
21624;SDS011;10974;51.034;3.744;2023-12-28T10:37:17;9.80;;;2.50;;
21624;SDS011;10974;51.034;3.744;2023-12-28T10:39:46;8.20;;;2.80;;
21624;SDS011;10974;51.034;3.744;2023-12-28T10:42:13;12.53;;;3.33;;
21624;SDS011;10974;51.034;3.744;2023-12-28T10:44:41;13.10;;;3.03;;
21624;SDS011;10974;51.034;3.744;2023-12-28T10:47:10;10.03;;;2.80;;
21624;SDS011;10974;51.034;3.744;2023-12-28T10:49:44;6.53;;;2.17;;
21624;SDS011;10974;51.034;3.744;2023-12-28T10:52:11;14.27;;;2.97;;
21624;SDS011;10974;51.034;3.744;2023-12-28T10:57:45;12.37;;;3.17;;
21624;SDS011;10974;51.034;3.744;2023-12-28T11:00:13;10.43;;;2.80;;
21624;SDS011;10974;51.034;3.744;2023-12-28T11:02:51;11.67;;;3.00;;
21624;SDS011;10974;51.034;3.744;2023-12-28T11:05:21;12.20;;;2.63;;
21624;SDS011;10974;51.034;3.744;2023-12-28T11:07:47;13.03;;;3.00;;
21624;SDS011;10974;51.034;3.744;2023-12-28T11:10:13;11.60;;;3.20;;
21624;SDS011;10974;51.034;3.744;2023-12-28T11:12:39;13.00;;;3.60;;
21624;SDS011;10974;51.034;3.744;2023-12-28T11:15:06;17.47;;;3.63;;
21624;SDS011;10974;51.034;3.744;2023-12-28T11:17:33;12.27;;;3.57;;
21624;SDS011;10974;51.034;3.744;2023-12-28T11:20:01;12.20;;;2.77;;
21624;SDS011;10974;51.034;3.744;2023-12-28T11:22:29;10.23;;;2.73;;
21624;SDS011;10974;51.034;3.744;2023-12-28T11:24:56;9.30;;;2.80;;
21624;SDS011;10974;51.034;3.744;2023-12-28T11:27:22;14.60;;;4.60;;
21624;SDS011;10974;51.034;3.744;2023-12-28T11:29:48;9.83;;;3.43;;
21624;SDS011;10974;51.034;3.744;2023-12-28T11:32:15;14.93;;;3.10;;
21624;SDS011;10974;51.034;3.744;2023-12-28T11:34:42;15.43;;;3.73;;
21624;SDS011;10974;51.034;3.744;2023-12-28T11:37:08;10.23;;;3.00;;
21624;SDS011;10974;51.034;3.744;2023-12-28T11:39:37;10.60;;;3.10;;
21624;SDS011;10974;51.034;3.744;2023-12-28T11:42:05;8.90;;;3.17;;
21624;SDS011;10974;51.034;3.744;2023-12-28T11:44:40;14.13;;;3.10;;
21624;SDS011;10974;51.034;3.744;2023-12-28T11:47:13;10.10;;;2.30;;
21624;SDS011;10974;51.034;3.744;2023-12-28T11:49:39;12.00;;;2.90;;
21624;SDS011;10974;51.034;3.744;2023-12-28T11:52:06;14.57;;;3.53;;
21624;SDS011;10974;51.034;3.744;2023-12-28T11:54:32;7.70;;;2.50;;
21624;SDS011;10974;51.034;3.744;2023-12-28T11:56:58;14.63;;;3.00;;
21624;SDS011;10974;51.034;3.744;2023-12-28T11:59:24;8.87;;;2.63;;
21624;SDS011;10974;51.034;3.744;2023-12-28T12:01:51;7.30;;;2.93;;
21624;SDS011;10974;51.034;3.744;2023-12-28T12:04:20;11.47;;;2.90;;
21624;SDS011;10974;51.034;3.744;2023-12-28T12:06:49;11.77;;;3.10;;
21624;SDS011;10974;51.034;3.744;2023-12-28T12:09:17;8.80;;;3.17;;
21624;SDS011;10974;51.034;3.744;2023-12-28T12:11:47;9.63;;;2.60;;
21624;SDS011;10974;51.034;3.744;2023-12-28T12:14:14;13.00;;;2.90;;
21624;SDS011;10974;51.034;3.744;2023-12-28T12:16:40;11.83;;;3.20;;
21624;SDS011;10974;51.034;3.744;2023-12-28T12:19:06;12.90;;;2.70;;
21624;SDS011;10974;51.034;3.744;2023-12-28T12:21:33;7.40;;;2.30;;
21624;SDS011;10974;51.034;3.744;2023-12-28T12:23:59;9.10;;;2.43;;
21624;SDS011;10974;51.034;3.744;2023-12-28T12:26:29;12.80;;;3.20;;
21624;SDS011;10974;51.034;3.744;2023-12-28T12:28:56;10.93;;;2.87;;
21624;SDS011;10974;51.034;3.744;2023-12-28T12:31:22;10.70;;;2.93;;
21624;SDS011;10974;51.034;3.744;2023-12-28T12:33:49;11.37;;;3.63;;
21624;SDS011;10974;51.034;3.744;2023-12-28T12:36:15;15.33;;;3.27;;
21624;SDS011;10974;51.034;3.744;2023-12-28T12:38:42;8.17;;;2.40;;
21624;SDS011;10974;51.034;3.744;2023-12-28T12:41:09;12.80;;;3.00;;
21624;SDS011;10974;51.034;3.744;2023-12-28T12:43:37;13.67;;;2.90;;
21624;SDS011;10974;51.034;3.744;2023-12-28T12:46:03;7.10;;;2.07;;
21624;SDS011;10974;51.034;3.744;2023-12-28T12:48:30;12.27;;;2.60;;
21624;SDS011;10974;51.034;3.744;2023-12-28T12:50:56;7.07;;;2.43;;
21624;SDS011;10974;51.034;3.744;2023-12-28T12:53:22;10.80;;;2.60;;
21624;SDS011;10974;51.034;3.744;2023-12-28T12:55:48;12.33;;;3.07;;
21624;SDS011;10974;51.034;3.744;2023-12-28T12:58:14;13.80;;;2.67;;
21624;SDS011;10974;51.034;3.744;2023-12-28T13:00:42;10.57;;;2.93;;
21624;SDS011;10974;51.034;3.744;2023-12-28T13:03:08;9.17;;;2.63;;
21624;SDS011;10974;51.034;3.744;2023-12-28T13:05:35;12.60;;;2.40;;
21624;SDS011;10974;51.034;3.744;2023-12-28T13:08:02;9.63;;;2.77;;
21624;SDS011;10974;51.034;3.744;2023-12-28T13:10:28;11.90;;;3.03;;
21624;SDS011;10974;51.034;3.744;2023-12-28T13:12:55;10.50;;;2.60;;
21624;SDS011;10974;51.034;3.744;2023-12-28T13:15:21;10.90;;;2.83;;
21624;SDS011;10974;51.034;3.744;2023-12-28T13:17:47;5.57;;;2.50;;
21624;SDS011;10974;51.034;3.744;2023-12-28T13:20:13;6.70;;;2.57;;
21624;SDS011;10974;51.034;3.744;2023-12-28T13:22:39;9.13;;;2.40;;
21624;SDS011;10974;51.034;3.744;2023-12-28T13:25:05;11.60;;;3.03;;
21624;SDS011;10974;51.034;3.744;2023-12-28T13:27:31;12.23;;;3.20;;
21624;SDS011;10974;51.034;3.744;2023-12-28T13:29:58;10.07;;;3.23;;
21624;SDS011;10974;51.034;3.744;2023-12-28T13:32:24;9.60;;;2.70;;
21624;SDS011;10974;51.034;3.744;2023-12-28T13:34:50;11.50;;;2.60;;
21624;SDS011;10974;51.034;3.744;2023-12-28T13:37:17;10.93;;;2.90;;
21624;SDS011;10974;51.034;3.744;2023-12-28T13:39:43;13.87;;;3.03;;
21624;SDS011;10974;51.034;3.744;2023-12-28T13:42:09;11.23;;;3.10;;
21624;SDS011;10974;51.034;3.744;2023-12-28T13:44:35;9.10;;;2.40;;
21624;SDS011;10974;51.034;3.744;2023-12-28T13:47:02;10.20;;;2.63;;
21624;SDS011;10974;51.034;3.744;2023-12-28T13:49:28;11.43;;;2.50;;
21624;SDS011;10974;51.034;3.744;2023-12-28T13:51:54;13.70;;;3.17;;
21624;SDS011;10974;51.034;3.744;2023-12-28T13:54:20;13.57;;;3.23;;
21624;SDS011;10974;51.034;3.744;2023-12-28T13:56:47;18.93;;;3.10;;
21624;SDS011;10974;51.034;3.744;2023-12-28T13:59:13;11.53;;;2.87;;
21624;SDS011;10974;51.034;3.744;2023-12-28T14:01:39;9.43;;;2.33;;
21624;SDS011;10974;51.034;3.744;2023-12-28T14:04:06;12.47;;;2.63;;
21624;SDS011;10974;51.034;3.744;2023-12-28T14:06:32;7.03;;;2.20;;
21624;SDS011;10974;51.034;3.744;2023-12-28T14:08:58;12.13;;;3.03;;
21624;SDS011;10974;51.034;3.744;2023-12-28T14:11:24;10.87;;;2.50;;
21624;SDS011;10974;51.034;3.744;2023-12-28T14:13:50;15.33;;;3.20;;
21624;SDS011;10974;51.034;3.744;2023-12-28T14:16:17;7.50;;;2.67;;
21624;SDS011;10974;51.034;3.744;2023-12-28T14:18:43;12.27;;;3.10;;
21624;SDS011;10974;51.034;3.744;2023-12-28T14:21:09;15.53;;;3.03;;
21624;SDS011;10974;51.034;3.744;2023-12-28T14:23:35;8.87;;;2.57;;
21624;SDS011;10974;51.034;3.744;2023-12-28T14:26:07;11.87;;;3.00;;
21624;SDS011;10974;51.034;3.744;2023-12-28T14:28:37;16.30;;;2.83;;
21624;SDS011;10974;51.034;3.744;2023-12-28T14:31:04;13.07;;;2.93;;
21624;SDS011;10974;51.034;3.744;2023-12-28T14:33:30;8.67;;;3.10;;
21624;SDS011;10974;51.034;3.744;2023-12-28T14:35:57;9.13;;;2.93;;
21624;SDS011;10974;51.034;3.744;2023-12-28T14:38:24;11.67;;;2.97;;
21624;SDS011;10974;51.034;3.744;2023-12-28T14:40:50;18.53;;;3.43;;
21624;SDS011;10974;51.034;3.744;2023-12-28T14:43:17;8.70;;;2.57;;